• Join FlightAware (Why Join?)
  • Login
  • US Flag 
12:38PM EDT


 

Airport Tracker/Info


-or-


 

Live Flight TrackerFlight Track Log ✈ AAY846 ✈ 10-Feb-2014 ✈ KPIE - KPIA

Flight Track Log - Related Links

Times and Time Zones

All times are in EST time to prevent confusion due to time zone crossing. See the AAY846 flight status page for this flight to view local times or setup timezone preferences in your user account.

Time Position Orientation Groundspeed Altitude Reporting Facility
EST Latitude Longitude Course Direction KTS MPH feet Rate Location/Type
08:04AM 27.9333 -82.7000 360° North 151 174 700  Level Tampa TRACON
08:04AM 27.9333 -82.7000 360° North 162 186 1,200 1,740 Climbing Tampa TRACON
08:05AM 27.9833 -82.6667 30° Northeast 203 234 3,000 1,920 Climbing Tampa TRACON
08:06AM 28.0500 -82.6500 12° North 253 291 5,100 2,160 Climbing Tampa TRACON
08:09AM 28.2125 -82.7231 338° Northwest 286 329 10,200 1,920 Climbing Jacksonville Center
08:10AM 28.3042 -82.7653 338° Northwest 315 362 11,500 1,980 Climbing Jacksonville Center
08:11AM 28.4003 -82.8100 338° Northwest 350 403 14,200 2,400 Climbing Jacksonville Center
08:12AM 28.5025 -82.8547 339° North 376 433 16,300 2,160 Climbing Jacksonville Center
08:13AM 28.6111 -82.8972 341° North 391 450 18,600 1,680 Climbing Jacksonville Center
08:14AM 28.7050 -82.9375 339° North 397 457 19,700 1,440 Climbing Jacksonville Center
08:15AM 28.8178 -82.9825 341° North 404 465 21,500 1,620 Climbing Jacksonville Center
08:16AM 28.9303 -83.0278 341° North 415 478 23,000 1,680 Climbing Jacksonville Center
08:17AM 29.0431 -83.0778 339° North 428 493 24,900 1,740 Climbing Jacksonville Center
08:18AM 29.1472 -83.1422 332° Northwest 428 493 26,500 1,380 Climbing Jacksonville Center
08:19AM 29.2536 -83.2019 334° Northwest 423 487 27,700 1,320 Climbing Jacksonville Center
08:20AM 29.3578 -83.2667 332° Northwest 428 493 29,200 1,500 Climbing Jacksonville Center
08:21AM 29.4619 -83.3244 334° Northwest 428 493 30,700 1,200 Climbing Jacksonville Center
08:22AM 29.5619 -83.3892 331° Northwest 423 487 31,700 600 Climbing Jacksonville Center
08:23AM 29.6639 -83.4494 333° Northwest 410 472 31,900 60 Climbing Jacksonville Center
08:24AM 29.7639 -83.5122 331° Northwest 410 472 31,900 300 Level Jacksonville Center
08:25AM 29.8764 -83.5753 334° Northwest 410 472 32,600 540 Climbing Jacksonville Center
08:26AM 29.9742 -83.6408 330° Northwest 410 472 33,000 600 Climbing Jacksonville Center
08:27AM 30.0781 -83.6967 335° Northwest 410 472 33,900 420 Climbing Jacksonville Center
08:28AM 30.1781 -83.7625 330° Northwest 410 472 33,900  Level Jacksonville Center
08:29AM 30.2797 -83.8186 335° Northwest 410 472 33,900  Level Jacksonville Center
08:30AM 30.3775 -83.8822 331° Northwest 410 472 33,900  Level Jacksonville Center
08:31AM 30.4772 -83.9364 335° Northwest 404 465 33,900  Level Jacksonville Center
08:32AM 30.5625 -83.9975 328° Northwest 399 459 34,000  Climbing Jacksonville Center
08:33AM 30.6642 -84.0567 333° Northwest 399 459 34,000  Level Jacksonville Center
08:34AM 30.7617 -84.1183 331° Northwest 399 459 34,000  Level Jacksonville Center
08:35AM 30.8633 -84.1778 333° Northwest 399 459 34,000  Level Jacksonville Center
08:37AM 31.1244 -84.3444 331° Northwest 412 474 34,000  Level Atlanta Center
08:38AM 31.2203 -84.4031 332° Northwest 401 461 34,000  Level Atlanta Center
08:39AM 31.3200 -84.4642 332° Northwest 401 461 34,000  Level Atlanta Center
08:40AM 31.4158 -84.5281 330° Northwest 411 473 34,000  Level Atlanta Center
08:41AM 31.5242 -84.5992 331° Northwest 411 473 34,000  Level Atlanta Center
08:42AM 31.6072 -84.6533 331° Northwest 411 473 34,000  Level Atlanta Center
08:43AM 31.7136 -84.7103 336° Northwest 432 497 34,000  Level Atlanta Center
08:44AM 31.8111 -84.7744 331° Northwest 412 474 34,000  Level Atlanta Center
08:45AM 31.9175 -84.8194 340° North 401 461 34,000  Level Atlanta Center
08:46AM 32.0278 -84.8569 344° North 401 461 34,000  Level Atlanta Center
08:47AM 32.1339 -84.8997 341° North 406 467 34,000  Level Atlanta Center
08:48AM 32.2486 -84.9353 345° North 406 467 34,000  Level Atlanta Center
08:49AM 32.3650 -84.9758 344° North 406 467 34,000  Level Atlanta Center
08:50AM 32.4775 -85.0089 346° North 406 467 34,000  Level Atlanta Center
08:51AM 32.5900 -85.0497 343° North 411 473 34,000  Level Atlanta Center
08:52AM 32.7044 -85.0856 345° North 411 473 34,000  Level Atlanta Center
08:53AM 32.8022 -85.1311 339° North 417 480 34,000  Level Atlanta Center
08:54AM 32.9250 -85.1600 349° North 422 486 34,000  Level Atlanta Center
08:55AM 33.0331 -85.2008 342° North 409 471 34,000  Level Atlanta Center
08:56AM 33.1308 -85.2517 336° Northwest 416 479 34,000  Level Atlanta Center
08:57AM 33.2472 -85.3031 340° North 410 472 34,000  Level Atlanta Center
08:58AM 33.3531 -85.3519 339° North 410 472 34,000  Level Atlanta Center
08:59AM 33.4592 -85.3983 340° North 398 458 34,000  Level Atlanta Center
09:00AM 33.5628 -85.4475 338° Northwest 398 458 34,000  Level Atlanta Center
09:01AM 33.6667 -85.4939 340° North 392 451 34,000  Level Atlanta Center
09:02AM 33.7664 -85.5431 338° Northwest 397 457 34,000  Level Atlanta Center
09:03AM 33.8722 -85.5925 339° North 392 451 34,000  Level Atlanta Center
09:04AM 33.9614 -85.6317 340° North 392 451 34,000  Level Atlanta Center
09:05AM 34.0650 -85.6814 338° Northwest 392 451 34,000  Level Atlanta Center
09:06AM 34.1772 -85.7311 340° North 392 451 34,000  Level Atlanta Center
09:07AM 34.2661 -85.7756 338° Northwest 387 445 34,000  Level Atlanta Center
09:08AM 34.3742 -85.8231 340° North 381 438 34,000  Level Atlanta Center
09:09AM 34.4694 -85.8731 337° Northwest 374 430 34,000  Level Atlanta Center
09:10AM 34.5731 -85.9183 340° North 374 430 34,000  Level Atlanta Center
09:11AM 34.6683 -85.9683 337° Northwest 374 430 34,000  Level Atlanta Center
09:12AM 34.7719 -86.0111 341° North 379 436 34,000  Level Atlanta Center
09:13AM 34.8669 -86.0642 335° Northwest 379 436 34,000  Level Atlanta Center
09:14AM 34.9664 -86.1094 340° North 379 436 34,000  Level Atlanta Center
09:17AM 35.2089 -86.2253 339° North 381 438 34,000  Level Memphis Center
09:18AM 35.3036 -86.2772 336° Northwest 371 427 34,000  Level Memphis Center
09:19AM 35.4039 -86.3214 340° North 377 434 34,000  Level Memphis Center
09:20AM 35.4992 -86.3728 336° Northwest 373 429 34,000  Level Memphis Center
09:21AM 35.6136 -86.4244 340° North 372 428 34,000  Level Memphis Center
09:22AM 35.7072 -86.4736 337° Northwest 365 420 34,000  Level Memphis Center
09:23AM 35.8058 -86.5189 340° North 372 428 34,000  Level Memphis Center
09:24AM 35.9000 -86.5697 336° Northwest 368 423 34,000  Level Memphis Center
09:25AM 35.9975 -86.6139 340° North 370 426 34,000  Level Memphis Center
09:26AM 36.0906 -86.6647 336° Northwest 364 419 34,000  Level Memphis Center
09:27AM 36.1847 -86.7117 338° Northwest 364 419 34,000  Level Memphis Center
09:28AM 36.2722 -86.7672 333° Northwest 354 407 34,000  Level Memphis Center
09:29AM 36.3786 -86.8208 338° Northwest 366 421 34,000  Level Memphis Center
09:30AM 36.4642 -86.8792 331° Northwest 360 414 34,000  Level Memphis Center
09:31AM 36.5550 -86.9297 336° Northwest 359 413 34,000  Level Memphis Center
09:32AM 36.6433 -86.9864 333° Northwest 354 407 34,000  Level Memphis Center
09:33AM 36.7367 -87.0369 337° Northwest 359 413 34,000  Level Memphis Center
09:34AM 36.8372 -87.1028 332° Northwest 350 403 34,000  Level Memphis Center
09:35AM 36.9297 -87.1528 337° Northwest 355 409 34,000  Level Memphis Center
09:36AM 37.0175 -87.2114 332° Northwest 355 409 34,000  Level Memphis Center
09:37AM 37.1100 -87.2617 337° Northwest 357 411 34,000  Level Memphis Center
09:38AM 37.1953 -87.3194 332° Northwest 350 403 34,000  Level Memphis Center
09:39AM 37.2886 -87.3692 337° Northwest 358 412 34,000  Level Memphis Center
09:41AM 37.3747 -87.4278 332° Northwest 352 405 34,000  Level Memphis Center
09:42AM 37.4692 -87.4794 337° Northwest 360 414 34,000  Level Memphis Center
09:43AM 37.5569 -87.5383 332° Northwest 357 411 34,000  Level Memphis Center
09:44AM 37.6678 -87.5997 336° Northwest 367 422 34,000  Level Memphis Center
09:45AM 37.7564 -87.6603 332° Northwest 362 417 34,000  Level Memphis Center
09:46AM 37.8497 -87.7128 336° Northwest 362 417 34,000  Level Memphis Center
09:46AM 37.9139 -87.7567 332° Northwest 362 417 34,000  Level Kansas City Center
09:47AM 37.9697 -87.7900 335° Northwest 362 417 34,000  Level Indianapolis Center
09:48AM 38.0669 -87.8414 337° Northwest 372 428 34,000  Level Indianapolis Center
09:49AM 38.1747 -87.9106 333° Northwest 361 415 34,000  Level Indianapolis Center
09:50AM 38.2714 -87.9653 336° Northwest 371 427 34,000  Level Indianapolis Center
09:51AM 38.3642 -88.0264 333° Northwest 371 427 34,000  Level Indianapolis Center
09:52AM 38.4628 -88.0789 337° Northwest 375 432 34,000  Level Indianapolis Center
09:53AM 38.5564 -88.1392 333° Northwest 376 433 34,000  Level Indianapolis Center
09:54AM 38.6536 -88.1911 337° Northwest 377 434 34,000  Level Indianapolis Center
09:55AM 38.7442 -88.2528 332° Northwest 369 425 34,000  Level Indianapolis Center
09:56AM 38.8411 -88.3044 337° Northwest 371 427 34,000  Level Indianapolis Center
09:57AM 38.9314 -88.3661 332° Northwest 369 425 34,000  Level Indianapolis Center
09:58AM 39.0264 -88.4156 338° Northwest 365 420 34,000 -1,020 Level Indianapolis Center
09:59AM 39.1328 -88.4883 332° Northwest 360 414 31,900 -2,280 Descending Indianapolis Center
10:01AM 39.2325 -88.5439 337° Northwest 376 433 29,400 -2,400 Descending Indianapolis Center
10:02AM 39.3433 -88.6175 333° Northwest 391 450 26,600 -2,280 Descending Kansas City Center
10:03AM 39.4558 -88.6764 338° Northwest 395 455 24,400 -1,980 Descending Kansas City Center
10:04AM 39.5417 -88.7408 330° Northwest 362 417 22,600 -1,800 Descending Kansas City Center
10:05AM 39.6328 -88.7856 339° North 354 407 20,800 -1,800 Descending Kansas City Center
10:06AM 39.7100 -88.8447 329° Northwest 329 379 19,000 -1,560 Descending Kansas City Center
10:07AM 39.7883 -88.9019 331° Northwest 324 373 17,700 -1,500 Descending Kansas City Center
10:08AM 39.8600 -88.9717 323° Northwest 321 369 16,000 -1,560 Descending Kansas City Center
10:09AM 39.9364 -89.0314 329° Northwest 321 369 14,500 -1,560 Descending Kansas City Center
10:09AM 39.9767 -89.0731 322° Northwest 313 360 13,600 -1,380 Descending Chicago Center
10:11AM 40.0494 -89.1336 328° Northwest 309 356 12,400 -1,080 Descending Chicago Center
10:12AM 40.1197 -89.1953 326° Northwest 306 352 11,400 -1,080 Descending Chicago Center
10:13AM 40.1975 -89.2564 329° Northwest 280 322 10,300 -1,380 Descending Chicago Center
10:14AM 40.2547 -89.3061 326° Northwest 256 295 8,600 -1,500 Descending Chicago Center
10:15AM 40.3125 -89.3511 329° Northwest 244 281 7,300 -1,200 Descending Chicago Center
10:16AM 40.3694 -89.3994 327° Northwest 244 281 6,200 -960 Descending Chicago Center
10:17AM 40.4278 -89.4447 329° Northwest 244 281 5,400 -780 Descending Chicago Center
10:18AM 40.4831 -89.4933 326° Northwest 241 277 4,700 -840 Descending Chicago Center
10:20AM 40.5939 -89.5778 330° Northwest 205 236 2,900 -900 Descending Chicago Center
10:21AM 40.6219 -89.6225 310° West 179 206 2,000 -840 Descending Chicago Center
10:22AM 40.6431 -89.6592 307° West 150 173 1,200 -720 Descending Chicago Center
10:23AM 40.6653 -89.6981 307° West 135 155 600 -600 Descending Chicago Center
10:25AM 40.6642 -89.6933 123° Southeast  Level Estimated